Sion Mills, United Kingdom
Current Conditions -  °F | °C
As of 2:50 PM on Wednesday 22 Oct 2014 (Local Time) from EGAE Reporting Station
Broken Clouds Broken Clouds  
Wind Chill: 55°   Ceiling: 2600
Heat Index: 55°   Visibility: 6mi
Dew Point: 48°   Wind: 25mph
Humidity: 77%   Direction: 230°SW
Pressure: 30"   Gusts: NA
Location:  54.79°N, 7.47°W
Report Text: EGAE 221350Z 23022KT 9999 BKN026 13/09 Q1016
Loading
Personal Weather Stations






























Interactive Weather Map
Tropical Storm Tracking
New forecast layout! Learn more

10-Day Weather Forecast

Advertisements
Track Severe Weather on mobile